ARG238 SACO-SABE
Flight info
| Callsign | ARG238 |
|---|---|
| Flight time | 0h 37m |
| Altitude | 37000 |
| Route | SACO/05 UTRAX UW24 SNT SNT9R |
| Aircraft | B738/M-SDE2E3FGHIRWXY/LB1 |
Departure
| Time | 2026-05-03 22:53 |
|---|---|
| Airport | Ingeniero Aeronáutico Ambrosio L.V. Taravella International Airport (SACO) |
Arrival
| Time | 2026-05-03 23:30 |
|---|---|
| Airport | Aeroparque Jorge Newbery (SABE) |
| Time | Latitude | Longitude | Altitude | Speed | Heading |
|---|---|---|---|---|---|
| 2026-05-03 22:32 | -31.31583 | -64.21169 | 1560 ft | 0 kts | 249° |
| 2026-05-03 22:34 | -31.31617 | -64.21168 | 1559 ft | 0 kts | 268° |
| 2026-05-03 22:42 | -31.31615 | -64.21142 | 1559 ft | 4 kts | 257° |
| 2026-05-03 22:43 | -31.31606 | -64.21113 | 1559 ft | 4 kts | 231° |
| 2026-05-03 22:43 | -31.31587 | -64.21098 | 1559 ft | 2 kts | 187° |
| 2026-05-03 22:43 | -31.31586 | -64.21097 | 1560 ft | 0 kts | 186° |
| 2026-05-03 22:45 | -31.31588 | -64.21098 | 1560 ft | 1 kts | 186° |
| 2026-05-03 22:45 | -31.31628 | -64.21100 | 1559 ft | 13 kts | 182° |
| 2026-05-03 22:46 | -31.31757 | -64.21066 | 1555 ft | 24 kts | 140° |
| 2026-05-03 22:46 | -31.31925 | -64.21030 | 1551 ft | 27 kts | 177° |
| 2026-05-03 22:46 | -31.32126 | -64.21021 | 1539 ft | 30 kts | 178° |
| 2026-05-03 22:46 | -31.32330 | -64.21017 | 1535 ft | 21 kts | 181° |
| 2026-05-03 22:47 | -31.32399 | -64.21011 | 1536 ft | 8 kts | 158° |
| 2026-05-03 22:47 | -31.32436 | -64.20965 | 1537 ft | 9 kts | 113° |
| 2026-05-03 22:47 | -31.32439 | -64.20886 | 1536 ft | 11 kts | 56° |
| 2026-05-03 22:47 | -31.32433 | -64.20878 | 1532 ft | 0 kts | 47° |
| 2026-05-03 22:51 | -31.32432 | -64.20878 | 1532 ft | 0 kts | 47° |
| 2026-05-03 22:52 | -31.32404 | -64.20845 | 1534 ft | 22 kts | 45° |
| 2026-05-03 22:52 | -31.32088 | -64.20493 | 1549 ft | 102 kts | 44° |
| 2026-05-03 22:52 | -31.31419 | -64.19741 | 1698 ft | 154 kts | 42° |
| 2026-05-03 22:53 | -31.30691 | -64.18809 | 2508 ft | 165 kts | 58° |
| 2026-05-03 22:53 | -31.30486 | -64.17404 | 3304 ft | 184 kts | 94° |
| 2026-05-03 22:53 | -31.30946 | -64.15927 | 3998 ft | 209 kts | 116° |
| 2026-05-03 22:53 | -31.31871 | -64.14542 | 4595 ft | 230 kts | 128° |
| 2026-05-03 22:54 | -31.32949 | -64.13072 | 4871 ft | 254 kts | 128° |
| 2026-05-03 22:54 | -31.34133 | -64.11401 | 5056 ft | 278 kts | 128° |
| 2026-05-03 22:54 | -31.35358 | -64.09481 | 5173 ft | 300 kts | 117° |
| 2026-05-03 22:54 | -31.36266 | -64.07322 | 5915 ft | 300 kts | 112° |
| 2026-05-03 22:55 | -31.36953 | -64.05016 | 6815 ft | 297 kts | 109° |
| 2026-05-03 22:55 | -31.37758 | -64.02796 | 7788 ft | 297 kts | 112° |
| 2026-05-03 22:55 | -31.38604 | -64.00573 | 8618 ft | 302 kts | 113° |
| 2026-05-03 22:55 | -31.39445 | -63.98303 | 9437 ft | 306 kts | 114° |
| 2026-05-03 22:56 | -31.40261 | -63.95987 | 10005 ft | 309 kts | 114° |
| 2026-05-03 22:56 | -31.41075 | -63.93599 | 10480 ft | 328 kts | 113° |
| 2026-05-03 22:56 | -31.41953 | -63.91012 | 10687 ft | 355 kts | 113° |
| 2026-05-03 22:56 | -31.42895 | -63.88232 | 10916 ft | 377 kts | 113° |
| 2026-05-03 22:57 | -31.43879 | -63.85327 | 11390 ft | 389 kts | 113° |
| 2026-05-03 22:57 | -31.44876 | -63.82366 | 12104 ft | 392 kts | 113° |
| 2026-05-03 22:57 | -31.45535 | -63.80397 | 12645 ft | 392 kts | 113° |
| 2026-05-03 22:57 | -31.47257 | -63.76646 | 13662 ft | 392 kts | 128° |
| 2026-05-03 22:58 | -31.48371 | -63.74974 | 14071 ft | 394 kts | 134° |
| 2026-05-03 22:58 | -31.51028 | -63.72092 | 14928 ft | 394 kts | 144° |
| 2026-05-03 22:58 | -31.53177 | -63.70077 | 15578 ft | 397 kts | 145° |
| 2026-05-03 22:58 | -31.55355 | -63.68062 | 16296 ft | 398 kts | 146° |
| 2026-05-03 22:59 | -31.57525 | -63.66048 | 17050 ft | 399 kts | 146° |
| 2026-05-03 22:59 | -31.58973 | -63.64697 | 17489 ft | 402 kts | 146° |
| 2026-05-03 22:59 | -31.61167 | -63.62639 | 18109 ft | 407 kts | 146° |
| 2026-05-03 22:59 | -31.63381 | -63.60547 | 18757 ft | 409 kts | 146° |
| 2026-05-03 23:00 | -31.65589 | -63.58451 | 19462 ft | 409 kts | 146° |
| 2026-05-03 23:00 | -31.67807 | -63.56343 | 20086 ft | 412 kts | 146° |
| 2026-05-03 23:00 | -31.70041 | -63.54218 | 20651 ft | 416 kts | 146° |
| 2026-05-03 23:00 | -31.72299 | -63.52069 | 21222 ft | 420 kts | 147° |
| 2026-05-03 23:01 | -31.74579 | -63.49896 | 21801 ft | 423 kts | 147° |
| 2026-05-03 23:01 | -31.76874 | -63.47708 | 22391 ft | 426 kts | 147° |
| 2026-05-03 23:01 | -31.79181 | -63.45505 | 23109 ft | 426 kts | 147° |
| 2026-05-03 23:01 | -31.81484 | -63.43306 | 23575 ft | 433 kts | 147° |
| 2026-05-03 23:02 | -31.83871 | -63.41032 | 23652 ft | 448 kts | 147° |
| 2026-05-03 23:02 | -31.86283 | -63.38730 | 23907 ft | 454 kts | 147° |
| 2026-05-03 23:02 | -31.88672 | -63.36327 | 24607 ft | 453 kts | 142° |
| 2026-05-03 23:02 | -31.90779 | -63.33548 | 25142 ft | 459 kts | 134° |
| 2026-05-03 23:03 | -31.92769 | -63.30592 | 25631 ft | 461 kts | 134° |
| 2026-05-03 23:03 | -31.94735 | -63.27603 | 26163 ft | 462 kts | 133° |
| 2026-05-03 23:03 | -31.96700 | -63.24606 | 26695 ft | 462 kts | 134° |
| 2026-05-03 23:03 | -31.98663 | -63.21626 | 27301 ft | 460 kts | 134° |
| 2026-05-03 23:04 | -32.00652 | -63.18632 | 27529 ft | 469 kts | 134° |
| 2026-05-03 23:04 | -32.02692 | -63.15585 | 27635 ft | 479 kts | 134° |
| 2026-05-03 23:04 | -32.04775 | -63.12482 | 27788 ft | 486 kts | 134° |
| 2026-05-03 23:04 | -32.06881 | -63.09344 | 28113 ft | 489 kts | 134° |
| 2026-05-03 23:05 | -32.08965 | -63.06231 | 28601 ft | 488 kts | 134° |
| 2026-05-03 23:05 | -32.11059 | -63.03097 | 29195 ft | 485 kts | 134° |
| 2026-05-03 23:05 | -32.13137 | -62.99984 | 29792 ft | 483 kts | 134° |
| 2026-05-03 23:05 | -32.15209 | -62.96880 | 30277 ft | 482 kts | 134° |
| 2026-05-03 23:06 | -32.17287 | -62.93770 | 30664 ft | 482 kts | 135° |
| 2026-05-03 23:06 | -32.19367 | -62.90654 | 31052 ft | 483 kts | 135° |
| 2026-05-03 23:06 | -32.21443 | -62.87541 | 31463 ft | 483 kts | 135° |
| 2026-05-03 23:06 | -32.23517 | -62.84428 | 31916 ft | 481 kts | 135° |
| 2026-05-03 23:07 | -32.25582 | -62.81324 | 32348 ft | 480 kts | 135° |
| 2026-05-03 23:07 | -32.27640 | -62.78228 | 32806 ft | 478 kts | 135° |
| 2026-05-03 23:07 | -32.29670 | -62.75174 | 33228 ft | 478 kts | 135° |
| 2026-05-03 23:07 | -32.31717 | -62.72091 | 33595 ft | 478 kts | 135° |
| 2026-05-03 23:08 | -32.33773 | -62.68994 | 33982 ft | 478 kts | 135° |
| 2026-05-03 23:08 | -32.35821 | -62.65905 | 34351 ft | 477 kts | 135° |
| 2026-05-03 23:08 | -32.37865 | -62.62818 | 34697 ft | 477 kts | 135° |
| 2026-05-03 23:08 | -32.39916 | -62.59720 | 34978 ft | 478 kts | 135° |
| 2026-05-03 23:09 | -32.41966 | -62.56622 | 35285 ft | 478 kts | 135° |
| 2026-05-03 23:09 | -32.44013 | -62.53522 | 35635 ft | 477 kts | 135° |
| 2026-05-03 23:09 | -32.46054 | -62.50430 | 35995 ft | 476 kts | 135° |
| 2026-05-03 23:09 | -32.48090 | -62.47341 | 36361 ft | 474 kts | 135° |
| 2026-05-03 23:10 | -32.50090 | -62.44305 | 36648 ft | 475 kts | 135° |
| 2026-05-03 23:10 | -32.52127 | -62.41215 | 36889 ft | 476 kts | 136° |
| 2026-05-03 23:10 | -32.54165 | -62.38120 | 37050 ft | 479 kts | 135° |
| 2026-05-03 23:11 | -32.58288 | -62.31849 | 37022 ft | 481 kts | 135° |
| 2026-05-03 23:11 | -32.62404 | -62.25571 | 37030 ft | 486 kts | 135° |
| 2026-05-03 23:12 | -32.66600 | -62.19168 | 37029 ft | 494 kts | 135° |
| 2026-05-03 23:12 | -32.70729 | -62.12712 | 37009 ft | 496 kts | 133° |
| 2026-05-03 23:13 | -32.74656 | -62.05967 | 37021 ft | 497 kts | 131° |
| 2026-05-03 23:13 | -32.78540 | -61.99177 | 37017 ft | 496 kts | 131° |
| 2026-05-03 23:14 | -32.82439 | -61.92436 | 37022 ft | 495 kts | 131° |
| 2026-05-03 23:14 | -33.03927 | -61.55443 | 37023 ft | 493 kts | 131° |
| 2026-05-03 23:15 | -33.34814 | -61.01456 | 37056 ft | 492 kts | 130° |
| 2026-05-03 23:15 | -33.65211 | -60.47025 | 37065 ft | 492 kts | 130° |
| 2026-05-03 23:16 | -33.80136 | -60.20048 | 37047 ft | 492 kts | 130° |
| 2026-05-03 23:16 | -33.92500 | -59.97647 | 36647 ft | 498 kts | 131° |
| 2026-05-03 23:16 | -33.99762 | -59.84712 | 34785 ft | 479 kts | 130° |
| 2026-05-03 23:16 | -34.07230 | -59.71290 | 31627 ft | 486 kts | 129° |
| 2026-05-03 23:17 | -34.14785 | -59.57594 | 27681 ft | 495 kts | 128° |
| 2026-05-03 23:17 | -34.22496 | -59.43568 | 23368 ft | 503 kts | 127° |
| 2026-05-03 23:17 | -34.29868 | -59.29644 | 19974 ft | 476 kts | 126° |
| 2026-05-03 23:17 | -34.35891 | -59.18070 | 18851 ft | 427 kts | 126° |
| 2026-05-03 23:18 | -34.37462 | -59.15079 | 17954 ft | 430 kts | 126° |
| 2026-05-03 23:18 | -34.39700 | -59.10835 | 16416 ft | 438 kts | 125° |
| 2026-05-03 23:18 | -34.46171 | -58.98483 | 13180 ft | 426 kts | 124° |
| 2026-05-03 23:18 | -34.48640 | -58.93744 | 12010 ft | 417 kts | 124° |
| 2026-05-03 23:19 | -34.53788 | -58.83847 | 10604 ft | 376 kts | 123° |
| 2026-05-03 23:19 | -34.55573 | -58.80410 | 10543 ft | 352 kts | 123° |
| 2026-05-03 23:19 | -34.56844 | -58.77946 | 10483 ft | 337 kts | 123° |
| 2026-05-03 23:19 | -34.58035 | -58.75567 | 10391 ft | 325 kts | 122° |
| 2026-05-03 23:20 | -34.59179 | -58.73253 | 10250 ft | 315 kts | 122° |
| 2026-05-03 23:20 | -34.60288 | -58.71005 | 10130 ft | 306 kts | 122° |
| 2026-05-03 23:20 | -34.61373 | -58.68808 | 9960 ft | 303 kts | 122° |
| 2026-05-03 23:20 | -34.62593 | -58.66342 | 9622 ft | 309 kts | 122° |
| 2026-05-03 23:21 | -34.67131 | -58.57164 | 8448 ft | 324 kts | 122° |
| 2026-05-03 23:21 | -34.68380 | -58.54633 | 7998 ft | 325 kts | 121° |
| 2026-05-03 23:21 | -34.69538 | -58.52286 | 7628 ft | 322 kts | 121° |
| 2026-05-03 23:21 | -34.70688 | -58.49951 | 7211 ft | 320 kts | 121° |
| 2026-05-03 23:22 | -34.72945 | -58.45368 | 6581 ft | 312 kts | 121° |
| 2026-05-03 23:22 | -34.74053 | -58.43115 | 6262 ft | 309 kts | 121° |
| 2026-05-03 23:22 | -34.75150 | -58.40886 | 5942 ft | 305 kts | 121° |
| 2026-05-03 23:23 | -34.76232 | -58.38684 | 5646 ft | 301 kts | 121° |
| 2026-05-03 23:23 | -34.77296 | -58.36520 | 5377 ft | 296 kts | 121° |
| 2026-05-03 23:23 | -34.78284 | -58.34337 | 5094 ft | 292 kts | 109° |
| 2026-05-03 23:23 | -34.78525 | -58.31952 | 4863 ft | 282 kts | 80° |
| 2026-05-03 23:24 | -34.77900 | -58.29748 | 4574 ft | 273 kts | 55° |
| 2026-05-03 23:24 | -34.76707 | -58.28039 | 4425 ft | 258 kts | 34° |
| 2026-05-03 23:24 | -34.75231 | -58.26895 | 4341 ft | 247 kts | 26° |
| 2026-05-03 23:24 | -34.73768 | -58.25876 | 4230 ft | 238 kts | 26° |
| 2026-05-03 23:25 | -34.72354 | -58.24893 | 4129 ft | 230 kts | 26° |
| 2026-05-03 23:25 | -34.70959 | -58.24059 | 3910 ft | 223 kts | 10° |
| 2026-05-03 23:25 | -34.69439 | -58.23925 | 3674 ft | 218 kts | 359° |
| 2026-05-03 23:25 | -34.67914 | -58.23866 | 3413 ft | 218 kts | 359° |
| 2026-05-03 23:26 | -34.66435 | -58.24017 | 3200 ft | 211 kts | 339° |
| 2026-05-03 23:26 | -34.65228 | -58.24971 | 3016 ft | 207 kts | 318° |
| 2026-05-03 23:26 | -34.64355 | -58.26365 | 2770 ft | 206 kts | 306° |
| 2026-05-03 23:26 | -34.63576 | -58.27801 | 2488 ft | 200 kts | 308° |
| 2026-05-03 23:27 | -34.62820 | -58.29174 | 2219 ft | 190 kts | 308° |
| 2026-05-03 23:27 | -34.62105 | -58.30469 | 1959 ft | 180 kts | 308° |
| 2026-05-03 23:27 | -34.61421 | -58.31703 | 1731 ft | 172 kts | 309° |
| 2026-05-03 23:27 | -34.60762 | -58.32890 | 1503 ft | 168 kts | 309° |
| 2026-05-03 23:28 | -34.60132 | -58.34024 | 1296 ft | 161 kts | 309° |
| 2026-05-03 23:28 | -34.59514 | -58.35135 | 1082 ft | 156 kts | 309° |
| 2026-05-03 23:28 | -34.58925 | -58.36194 | 879 ft | 150 kts | 309° |
| 2026-05-03 23:28 | -34.58371 | -58.37192 | 728 ft | 135 kts | 308° |
| 2026-05-03 23:29 | -34.57851 | -58.38119 | 546 ft | 131 kts | 307° |
| 2026-05-03 23:29 | -34.57361 | -58.39013 | 384 ft | 127 kts | 307° |
| 2026-05-03 23:29 | -34.56859 | -58.39907 | 218 ft | 130 kts | 308° |
| 2026-05-03 23:29 | -34.56352 | -58.40804 | 63 ft | 128 kts | 307° |
| 2026-05-03 23:30 | -34.55890 | -58.41633 | 25 ft | 105 kts | 305° |
| 2026-05-03 23:30 | -34.55584 | -58.42176 | 27 ft | 58 kts | 303° |
| 2026-05-03 23:30 | -34.55426 | -58.42463 | 30 ft | 14 kts | 309° |
| 2026-05-03 23:30 | -34.55365 | -58.42479 | 26 ft | 5 kts | 67° |
| 2026-05-03 23:31 | -34.55374 | -58.42378 | 28 ft | 19 kts | 114° |
| 2026-05-03 23:31 | -34.55466 | -58.42212 | 26 ft | 26 kts | 127° |
| 2026-05-03 23:31 | -34.55573 | -58.42041 | 30 ft | 25 kts | 125° |
| 2026-05-03 23:31 | -34.55668 | -58.41877 | 29 ft | 23 kts | 124° |
| 2026-05-03 23:32 | -34.55750 | -58.41714 | 27 ft | 22 kts | 117° |
| 2026-05-03 23:32 | -34.55819 | -58.41549 | 27 ft | 22 kts | 116° |
| 2026-05-03 23:32 | -34.55879 | -58.41405 | 27 ft | 6 kts | 118° |
| 2026-05-03 23:32 | -34.55882 | -58.41398 | 28 ft | 0 kts | 118° |
| 2026-05-03 23:33 | -34.55895 | -58.41359 | 27 ft | 12 kts | 105° |
| 2026-05-03 23:33 | -34.55866 | -58.41275 | 26 ft | 13 kts | 3° |
| 2026-05-03 23:33 | -34.55798 | -58.41340 | 26 ft | 6 kts | 334° |
| 2026-05-03 23:34 | -34.55771 | -58.41326 | 28 ft | 4 kts | 33° |
| 2026-05-03 23:34 | -34.55763 | -58.41320 | 27 ft | 0 kts | 32° |